sensor_id;sensor_type;location;lat;lon;timestamp;temperature;humidity
18950;DHT22;9608;49.288;8.130;2022-09-09T00:00:19;15.70;99.90
18950;DHT22;9608;49.288;8.130;2022-09-09T00:02:53;15.70;99.90
18950;DHT22;9608;49.288;8.130;2022-09-09T00:05:28;15.70;99.90
18950;DHT22;9608;49.288;8.130;2022-09-09T00:07:58;15.70;99.90
18950;DHT22;9608;49.288;8.130;2022-09-09T00:10:29;15.70;99.90
18950;DHT22;9608;49.288;8.130;2022-09-09T00:13:03;15.90;99.90
18950;DHT22;9608;49.288;8.130;2022-09-09T00:15:36;15.90;99.90
18950;DHT22;9608;49.288;8.130;2022-09-09T00:18:11;15.80;99.90
18950;DHT22;9608;49.288;8.130;2022-09-09T00:20:44;15.80;99.90
18950;DHT22;9608;49.288;8.130;2022-09-09T00:23:18;15.80;99.90
18950;DHT22;9608;49.288;8.130;2022-09-09T00:25:50;15.80;99.90
18950;DHT22;9608;49.288;8.130;2022-09-09T00:28:23;15.90;99.90
18950;DHT22;9608;49.288;8.130;2022-09-09T00:30:51;15.80;99.90
18950;DHT22;9608;49.288;8.130;2022-09-09T00:33:20;15.80;99.90
18950;DHT22;9608;49.288;8.130;2022-09-09T00:35:50;15.80;99.90
18950;DHT22;9608;49.288;8.130;2022-09-09T00:38:24;15.90;99.90
18950;DHT22;9608;49.288;8.130;2022-09-09T00:40:58;16.00;99.90
18950;DHT22;9608;49.288;8.130;2022-09-09T00:43:29;16.00;99.90
18950;DHT22;9608;49.288;8.130;2022-09-09T00:46:16;16.00;99.90
18950;DHT22;9608;49.288;8.130;2022-09-09T00:48:54;16.00;99.90
18950;DHT22;9608;49.288;8.130;2022-09-09T00:51:30;16.00;99.90
18950;DHT22;9608;49.288;8.130;2022-09-09T00:54:15;16.00;99.90
18950;DHT22;9608;49.288;8.130;2022-09-09T00:56:49;16.10;99.90
18950;DHT22;9608;49.288;8.130;2022-09-09T00:59:26;16.10;99.90
18950;DHT22;9608;49.288;8.130;2022-09-09T01:01:55;16.20;99.90
18950;DHT22;9608;49.288;8.130;2022-09-09T01:04:28;16.20;99.90
18950;DHT22;9608;49.288;8.130;2022-09-09T01:07:02;16.10;99.90
18950;DHT22;9608;49.288;8.130;2022-09-09T01:09:34;16.10;99.90
18950;DHT22;9608;49.288;8.130;2022-09-09T01:12:09;16.10;99.90
18950;DHT22;9608;49.288;8.130;2022-09-09T01:14:41;16.10;99.90
18950;DHT22;9608;49.288;8.130;2022-09-09T01:17:14;16.20;99.90
18950;DHT22;9608;49.288;8.130;2022-09-09T01:19:52;16.20;99.90
18950;DHT22;9608;49.288;8.130;2022-09-09T01:22:29;16.20;99.90
18950;DHT22;9608;49.288;8.130;2022-09-09T01:25:22;16.20;99.90
18950;DHT22;9608;49.288;8.130;2022-09-09T01:27:55;16.30;99.90
18950;DHT22;9608;49.288;8.130;2022-09-09T01:30:23;16.30;99.90
18950;DHT22;9608;49.288;8.130;2022-09-09T01:32:51;16.30;99.90
18950;DHT22;9608;49.288;8.130;2022-09-09T01:35:37;16.30;99.90
18950;DHT22;9608;49.288;8.130;2022-09-09T01:38:06;16.20;99.90
18950;DHT22;9608;49.288;8.130;2022-09-09T01:40:33;16.10;99.90
18950;DHT22;9608;49.288;8.130;2022-09-09T01:43:01;16.20;99.90
18950;DHT22;9608;49.288;8.130;2022-09-09T01:45:29;16.20;99.90
18950;DHT22;9608;49.288;8.130;2022-09-09T01:47:57;16.30;99.90
18950;DHT22;9608;49.288;8.130;2022-09-09T01:50:24;16.30;99.90
18950;DHT22;9608;49.288;8.130;2022-09-09T01:52:54;16.20;99.90
18950;DHT22;9608;49.288;8.130;2022-09-09T01:55:28;16.10;99.90
18950;DHT22;9608;49.288;8.130;2022-09-09T01:58:04;16.10;99.90
18950;DHT22;9608;49.288;8.130;2022-09-09T02:00:37;16.10;99.90
18950;DHT22;9608;49.288;8.130;2022-09-09T02:03:13;16.10;99.90
18950;DHT22;9608;49.288;8.130;2022-09-09T02:05:47;16.10;99.90
18950;DHT22;9608;49.288;8.130;2022-09-09T02:08:20;16.10;99.90
18950;DHT22;9608;49.288;8.130;2022-09-09T02:10:52;16.10;99.90
18950;DHT22;9608;49.288;8.130;2022-09-09T02:13:22;16.20;99.90
18950;DHT22;9608;49.288;8.130;2022-09-09T02:15:52;16.10;99.90
18950;DHT22;9608;49.288;8.130;2022-09-09T02:18:26;16.00;99.90
18950;DHT22;9608;49.288;8.130;2022-09-09T02:20:54;15.90;99.90
18950;DHT22;9608;49.288;8.130;2022-09-09T02:23:21;15.90;99.90
18950;DHT22;9608;49.288;8.130;2022-09-09T02:25:49;15.90;99.90
18950;DHT22;9608;49.288;8.130;2022-09-09T02:28:18;15.90;99.90
18950;DHT22;9608;49.288;8.130;2022-09-09T02:30:50;16.00;99.90
18950;DHT22;9608;49.288;8.130;2022-09-09T02:33:22;16.00;99.90
18950;DHT22;9608;49.288;8.130;2022-09-09T02:35:51;16.00;99.90
18950;DHT22;9608;49.288;8.130;2022-09-09T02:38:20;16.00;99.90
18950;DHT22;9608;49.288;8.130;2022-09-09T02:40:47;16.00;99.90
18950;DHT22;9608;49.288;8.130;2022-09-09T02:43:14;15.90;99.90
18950;DHT22;9608;49.288;8.130;2022-09-09T02:45:47;16.00;99.90
18950;DHT22;9608;49.288;8.130;2022-09-09T02:48:24;15.90;99.90
18950;DHT22;9608;49.288;8.130;2022-09-09T02:50:54;15.80;99.90
18950;DHT22;9608;49.288;8.130;2022-09-09T02:53:27;15.70;99.90
18950;DHT22;9608;49.288;8.130;2022-09-09T02:55:59;15.60;99.90
18950;DHT22;9608;49.288;8.130;2022-09-09T02:58:28;15.40;99.90
18950;DHT22;9608;49.288;8.130;2022-09-09T03:00:57;15.40;99.90
18950;DHT22;9608;49.288;8.130;2022-09-09T03:03:26;15.30;99.90
18950;DHT22;9608;49.288;8.130;2022-09-09T03:05:53;15.30;99.90
18950;DHT22;9608;49.288;8.130;2022-09-09T03:08:20;15.30;99.90
18950;DHT22;9608;49.288;8.130;2022-09-09T03:10:47;15.20;99.90
18950;DHT22;9608;49.288;8.130;2022-09-09T03:13:13;15.00;99.90
18950;DHT22;9608;49.288;8.130;2022-09-09T03:15:40;14.80;99.90
18950;DHT22;9608;49.288;8.130;2022-09-09T03:18:09;14.80;99.90
18950;DHT22;9608;49.288;8.130;2022-09-09T03:20:35;14.90;99.90
18950;DHT22;9608;49.288;8.130;2022-09-09T03:23:02;14.90;99.90
18950;DHT22;9608;49.288;8.130;2022-09-09T03:25:29;15.00;99.90
18950;DHT22;9608;49.288;8.130;2022-09-09T03:27:57;15.10;99.90
18950;DHT22;9608;49.288;8.130;2022-09-09T03:30:25;14.90;99.90
18950;DHT22;9608;49.288;8.130;2022-09-09T03:32:53;14.90;99.90
18950;DHT22;9608;49.288;8.130;2022-09-09T03:35:21;14.80;99.90
18950;DHT22;9608;49.288;8.130;2022-09-09T03:37:48;14.80;99.90
18950;DHT22;9608;49.288;8.130;2022-09-09T03:40:15;14.60;99.90
18950;DHT22;9608;49.288;8.130;2022-09-09T03:42:42;14.60;99.90
18950;DHT22;9608;49.288;8.130;2022-09-09T03:45:09;14.50;99.90
18950;DHT22;9608;49.288;8.130;2022-09-09T03:47:37;14.40;99.90
18950;DHT22;9608;49.288;8.130;2022-09-09T03:50:04;14.40;99.90
18950;DHT22;9608;49.288;8.130;2022-09-09T03:52:36;14.40;99.90
18950;DHT22;9608;49.288;8.130;2022-09-09T03:55:04;14.50;99.90
18950;DHT22;9608;49.288;8.130;2022-09-09T03:57:31;14.60;99.90
18950;DHT22;9608;49.288;8.130;2022-09-09T04:00:00;14.60;99.90
18950;DHT22;9608;49.288;8.130;2022-09-09T04:02:28;14.60;99.90
18950;DHT22;9608;49.288;8.130;2022-09-09T04:04:55;14.60;99.90
18950;DHT22;9608;49.288;8.130;2022-09-09T04:07:21;14.70;99.90
18950;DHT22;9608;49.288;8.130;2022-09-09T04:09:50;14.70;99.90
18950;DHT22;9608;49.288;8.130;2022-09-09T04:12:16;14.70;99.90
18950;DHT22;9608;49.288;8.130;2022-09-09T04:14:43;14.70;99.90
18950;DHT22;9608;49.288;8.130;2022-09-09T04:17:10;14.70;99.90
18950;DHT22;9608;49.288;8.130;2022-09-09T04:19:37;14.70;99.90
18950;DHT22;9608;49.288;8.130;2022-09-09T04:22:03;14.70;99.90
18950;DHT22;9608;49.288;8.130;2022-09-09T04:24:30;14.70;99.90
18950;DHT22;9608;49.288;8.130;2022-09-09T04:26:58;14.70;99.90
18950;DHT22;9608;49.288;8.130;2022-09-09T04:29:25;14.70;99.90
18950;DHT22;9608;49.288;8.130;2022-09-09T04:31:52;14.60;99.90
18950;DHT22;9608;49.288;8.130;2022-09-09T04:34:18;14.70;99.90
18950;DHT22;9608;49.288;8.130;2022-09-09T04:36:45;14.70;99.90
18950;DHT22;9608;49.288;8.130;2022-09-09T04:39:12;14.60;99.90
18950;DHT22;9608;49.288;8.130;2022-09-09T04:41:38;14.60;99.90
18950;DHT22;9608;49.288;8.130;2022-09-09T04:44:06;14.60;99.90
18950;DHT22;9608;49.288;8.130;2022-09-09T04:46:33;14.50;99.90
18950;DHT22;9608;49.288;8.130;2022-09-09T04:49:00;14.50;99.90
18950;DHT22;9608;49.288;8.130;2022-09-09T04:51:27;14.60;99.90
18950;DHT22;9608;49.288;8.130;2022-09-09T04:53:56;14.50;99.90
18950;DHT22;9608;49.288;8.130;2022-09-09T04:56:23;14.50;99.90
18950;DHT22;9608;49.288;8.130;2022-09-09T04:58:52;14.50;99.90
18950;DHT22;9608;49.288;8.130;2022-09-09T05:01:21;14.60;99.90
18950;DHT22;9608;49.288;8.130;2022-09-09T05:03:49;14.70;99.90
18950;DHT22;9608;49.288;8.130;2022-09-09T05:06:19;14.60;99.90
18950;DHT22;9608;49.288;8.130;2022-09-09T05:08:46;14.70;99.90
18950;DHT22;9608;49.288;8.130;2022-09-09T05:11:15;14.80;99.90
18950;DHT22;9608;49.288;8.130;2022-09-09T05:13:42;14.80;99.90
18950;DHT22;9608;49.288;8.130;2022-09-09T05:16:09;14.80;99.90
18950;DHT22;9608;49.288;8.130;2022-09-09T05:18:38;14.70;99.90
18950;DHT22;9608;49.288;8.130;2022-09-09T05:21:05;14.80;99.90
18950;DHT22;9608;49.288;8.130;2022-09-09T05:23:32;14.90;99.90
18950;DHT22;9608;49.288;8.130;2022-09-09T05:26:00;14.90;99.90
18950;DHT22;9608;49.288;8.130;2022-09-09T05:28:27;14.90;99.90
18950;DHT22;9608;49.288;8.130;2022-09-09T05:30:58;14.90;99.90
18950;DHT22;9608;49.288;8.130;2022-09-09T05:33:26;14.90;99.90
18950;DHT22;9608;49.288;8.130;2022-09-09T05:36:02;15.00;99.90
18950;DHT22;9608;49.288;8.130;2022-09-09T05:38:30;15.00;99.90
18950;DHT22;9608;49.288;8.130;2022-09-09T05:40:57;15.00;99.90
18950;DHT22;9608;49.288;8.130;2022-09-09T05:43:25;15.20;99.90
18950;DHT22;9608;49.288;8.130;2022-09-09T05:46:03;15.30;99.90
18950;DHT22;9608;49.288;8.130;2022-09-09T05:48:31;15.50;99.90
18950;DHT22;9608;49.288;8.130;2022-09-09T05:51:00;15.50;99.90
18950;DHT22;9608;49.288;8.130;2022-09-09T05:53:27;15.60;99.90
18950;DHT22;9608;49.288;8.130;2022-09-09T05:56:01;15.60;99.90
18950;DHT22;9608;49.288;8.130;2022-09-09T05:58:30;15.80;99.90
18950;DHT22;9608;49.288;8.130;2022-09-09T06:01:01;15.90;99.90
18950;DHT22;9608;49.288;8.130;2022-09-09T06:03:28;16.00;99.90
18950;DHT22;9608;49.288;8.130;2022-09-09T06:06:02;16.10;99.90
18950;DHT22;9608;49.288;8.130;2022-09-09T06:08:31;16.20;99.90
18950;DHT22;9608;49.288;8.130;2022-09-09T06:11:02;16.20;99.90
18950;DHT22;9608;49.288;8.130;2022-09-09T06:13:30;16.20;99.90
18950;DHT22;9608;49.288;8.130;2022-09-09T06:15:57;16.30;99.90
18950;DHT22;9608;49.288;8.130;2022-09-09T06:18:25;16.40;99.90
18950;DHT22;9608;49.288;8.130;2022-09-09T06:20:56;16.60;99.90
18950;DHT22;9608;49.288;8.130;2022-09-09T06:23:26;16.90;99.90
18950;DHT22;9608;49.288;8.130;2022-09-09T06:26:01;17.20;99.90
18950;DHT22;9608;49.288;8.130;2022-09-09T06:28:31;17.30;99.90
18950;DHT22;9608;49.288;8.130;2022-09-09T06:30:58;17.50;99.90
18950;DHT22;9608;49.288;8.130;2022-09-09T06:33:26;17.70;99.90
18950;DHT22;9608;49.288;8.130;2022-09-09T06:35:54;17.90;99.90
18950;DHT22;9608;49.288;8.130;2022-09-09T06:38:22;18.10;99.90
18950;DHT22;9608;49.288;8.130;2022-09-09T06:40:54;18.30;99.90
18950;DHT22;9608;49.288;8.130;2022-09-09T06:43:22;18.50;99.90
18950;DHT22;9608;49.288;8.130;2022-09-09T06:45:56;18.70;99.90
18950;DHT22;9608;49.288;8.130;2022-09-09T06:48:24;19.10;99.90
18950;DHT22;9608;49.288;8.130;2022-09-09T06:51:00;19.30;99.90
18950;DHT22;9608;49.288;8.130;2022-09-09T06:53:28;19.40;99.90
18950;DHT22;9608;49.288;8.130;2022-09-09T06:55:58;19.40;99.90
18950;DHT22;9608;49.288;8.130;2022-09-09T06:58:26;19.30;99.90
18950;DHT22;9608;49.288;8.130;2022-09-09T07:01:02;19.40;99.90
18950;DHT22;9608;49.288;8.130;2022-09-09T07:03:30;19.60;99.90
18950;DHT22;9608;49.288;8.130;2022-09-09T07:05:57;19.60;99.90
18950;DHT22;9608;49.288;8.130;2022-09-09T07:08:25;19.80;99.90
18950;DHT22;9608;49.288;8.130;2022-09-09T07:10:54;20.00;99.90
18950;DHT22;9608;49.288;8.130;2022-09-09T07:13:26;19.70;99.90
18950;DHT22;9608;49.288;8.130;2022-09-09T07:15:54;19.50;99.90
18950;DHT22;9608;49.288;8.130;2022-09-09T07:18:21;19.40;99.90
18950;DHT22;9608;49.288;8.130;2022-09-09T07:20:53;19.40;99.90
18950;DHT22;9608;49.288;8.130;2022-09-09T07:23:22;19.30;99.90
18950;DHT22;9608;49.288;8.130;2022-09-09T07:25:51;19.30;99.90
18950;DHT22;9608;49.288;8.130;2022-09-09T07:28:19;19.30;99.90
18950;DHT22;9608;49.288;8.130;2022-09-09T07:30:55;19.30;99.90
18950;DHT22;9608;49.288;8.130;2022-09-09T07:33:23;19.30;99.90
18950;DHT22;9608;49.288;8.130;2022-09-09T07:35:52;19.20;99.90
18950;DHT22;9608;49.288;8.130;2022-09-09T07:38:20;19.30;99.90
18950;DHT22;9608;49.288;8.130;2022-09-09T07:40:48;19.30;99.90
18950;DHT22;9608;49.288;8.130;2022-09-09T07:43:15;19.10;99.90
18950;DHT22;9608;49.288;8.130;2022-09-09T07:45:42;19.30;99.90
18950;DHT22;9608;49.288;8.130;2022-09-09T07:48:11;19.30;99.90
18950;DHT22;9608;49.288;8.130;2022-09-09T07:50:38;19.20;99.90
18950;DHT22;9608;49.288;8.130;2022-09-09T07:53:05;19.10;99.90
18950;DHT22;9608;49.288;8.130;2022-09-09T07:55:32;19.20;99.90
18950;DHT22;9608;49.288;8.130;2022-09-09T07:57:59;19.20;99.90
18950;DHT22;9608;49.288;8.130;2022-09-09T08:00:27;18.80;99.90
18950;DHT22;9608;49.288;8.130;2022-09-09T08:02:54;18.70;99.90
18950;DHT22;9608;49.288;8.130;2022-09-09T08:05:23;18.40;99.90
18950;DHT22;9608;49.288;8.130;2022-09-09T08:07:50;18.30;99.90
18950;DHT22;9608;49.288;8.130;2022-09-09T08:10:17;18.60;99.90
18950;DHT22;9608;49.288;8.130;2022-09-09T08:12:44;18.80;99.90
18950;DHT22;9608;49.288;8.130;2022-09-09T08:15:47;19.10;99.90
18950;DHT22;9608;49.288;8.130;2022-09-09T08:18:35;19.50;99.90
18950;DHT22;9608;49.288;8.130;2022-09-09T08:21:10;19.80;99.90
18950;DHT22;9608;49.288;8.130;2022-09-09T08:23:53;19.90;99.90
18950;DHT22;9608;49.288;8.130;2022-09-09T08:26:24;20.10;99.90
18950;DHT22;9608;49.288;8.130;2022-09-09T08:29:28;20.20;99.90
18950;DHT22;9608;49.288;8.130;2022-09-09T08:32:45;20.10;99.90
18950;DHT22;9608;49.288;8.130;2022-09-09T08:35:34;20.20;99.90
18950;DHT22;9608;49.288;8.130;2022-09-09T08:38:10;20.40;99.90
18950;DHT22;9608;49.288;8.130;2022-09-09T08:40:48;20.50;99.90
18950;DHT22;9608;49.288;8.130;2022-09-09T08:43:20;20.70;99.90
18950;DHT22;9608;49.288;8.130;2022-09-09T08:45:53;20.90;99.90
18950;DHT22;9608;49.288;8.130;2022-09-09T08:48:43;21.10;99.90
18950;DHT22;9608;49.288;8.130;2022-09-09T08:51:12;21.50;99.90
18950;DHT22;9608;49.288;8.130;2022-09-09T08:53:43;21.90;99.90
18950;DHT22;9608;49.288;8.130;2022-09-09T08:56:14;22.40;99.90
18950;DHT22;9608;49.288;8.130;2022-09-09T08:58:46;22.70;99.90
18950;DHT22;9608;49.288;8.130;2022-09-09T09:01:35;22.60;99.90
18950;DHT22;9608;49.288;8.130;2022-09-09T09:04:12;22.50;99.90
18950;DHT22;9608;49.288;8.130;2022-09-09T09:07:05;22.60;99.90
18950;DHT22;9608;49.288;8.130;2022-09-09T09:09:42;22.60;99.90
18950;DHT22;9608;49.288;8.130;2022-09-09T09:12:16;22.20;99.90
18950;DHT22;9608;49.288;8.130;2022-09-09T09:14:46;21.50;99.90
18950;DHT22;9608;49.288;8.130;2022-09-09T09:17:15;20.80;99.90
18950;DHT22;9608;49.288;8.130;2022-09-09T09:19:44;20.00;99.90
18950;DHT22;9608;49.288;8.130;2022-09-09T09:22:17;19.30;99.90
18950;DHT22;9608;49.288;8.130;2022-09-09T09:24:50;19.00;99.90
18950;DHT22;9608;49.288;8.130;2022-09-09T09:27:25;18.90;99.90
18950;DHT22;9608;49.288;8.130;2022-09-09T09:29:57;18.90;99.90
18950;DHT22;9608;49.288;8.130;2022-09-09T09:32:28;19.10;99.90
18950;DHT22;9608;49.288;8.130;2022-09-09T09:34:58;19.70;99.90
18950;DHT22;9608;49.288;8.130;2022-09-09T09:37:28;20.20;99.90
18950;DHT22;9608;49.288;8.130;2022-09-09T09:40:08;20.50;99.90
18950;DHT22;9608;49.288;8.130;2022-09-09T09:42:35;20.30;99.90
18950;DHT22;9608;49.288;8.130;2022-09-09T09:45:08;20.10;99.90
18950;DHT22;9608;49.288;8.130;2022-09-09T09:47:36;19.80;99.90
18950;DHT22;9608;49.288;8.130;2022-09-09T09:50:17;19.50;99.90
18950;DHT22;9608;49.288;8.130;2022-09-09T09:52:55;19.30;99.90
18950;DHT22;9608;49.288;8.130;2022-09-09T09:55:24;19.60;99.90
18950;DHT22;9608;49.288;8.130;2022-09-09T09:57:53;19.80;99.90
18950;DHT22;9608;49.288;8.130;2022-09-09T10:00:21;19.60;99.90
18950;DHT22;9608;49.288;8.130;2022-09-09T10:02:50;19.50;99.90
18950;DHT22;9608;49.288;8.130;2022-09-09T10:05:20;19.40;99.90
18950;DHT22;9608;49.288;8.130;2022-09-09T10:07:47;19.40;99.90
18950;DHT22;9608;49.288;8.130;2022-09-09T10:10:20;19.30;99.90
18950;DHT22;9608;49.288;8.130;2022-09-09T10:12:57;19.30;99.90
18950;DHT22;9608;49.288;8.130;2022-09-09T10:15:38;19.30;99.90
18950;DHT22;9608;49.288;8.130;2022-09-09T10:18:20;19.50;99.90
18950;DHT22;9608;49.288;8.130;2022-09-09T10:20:57;19.80;99.90
18950;DHT22;9608;49.288;8.130;2022-09-09T10:23:39;20.00;99.90
18950;DHT22;9608;49.288;8.130;2022-09-09T10:26:23;20.00;99.90
18950;DHT22;9608;49.288;8.130;2022-09-09T10:29:08;20.00;99.90
18950;DHT22;9608;49.288;8.130;2022-09-09T10:31:45;19.90;99.90
18950;DHT22;9608;49.288;8.130;2022-09-09T10:34:33;19.80;99.90
18950;DHT22;9608;49.288;8.130;2022-09-09T10:37:15;19.90;99.90
18950;DHT22;9608;49.288;8.130;2022-09-09T10:39:53;20.20;99.90
18950;DHT22;9608;49.288;8.130;2022-09-09T10:42:28;20.40;99.90
18950;DHT22;9608;49.288;8.130;2022-09-09T10:45:19;20.40;99.90
18950;DHT22;9608;49.288;8.130;2022-09-09T10:48:04;20.60;99.90
18950;DHT22;9608;49.288;8.130;2022-09-09T10:50:50;21.00;99.90
18950;DHT22;9608;49.288;8.130;2022-09-09T10:53:35;21.30;99.90
18950;DHT22;9608;49.288;8.130;2022-09-09T10:56:06;21.30;99.90
18950;DHT22;9608;49.288;8.130;2022-09-09T10:58:37;21.40;99.90
18950;DHT22;9608;49.288;8.130;2022-09-09T11:01:13;21.80;99.90
18950;DHT22;9608;49.288;8.130;2022-09-09T11:03:43;22.20;99.90
18950;DHT22;9608;49.288;8.130;2022-09-09T11:06:15;22.50;99.90
18950;DHT22;9608;49.288;8.130;2022-09-09T11:08:58;22.60;99.90
18950;DHT22;9608;49.288;8.130;2022-09-09T11:11:34;22.40;99.90
18950;DHT22;9608;49.288;8.130;2022-09-09T11:14:08;22.20;99.90
18950;DHT22;9608;49.288;8.130;2022-09-09T11:16:42;22.00;99.90
18950;DHT22;9608;49.288;8.130;2022-09-09T11:19:15;21.80;99.90
18950;DHT22;9608;49.288;8.130;2022-09-09T11:21:46;22.10;99.90
18950;DHT22;9608;49.288;8.130;2022-09-09T11:24:20;22.40;99.90
18950;DHT22;9608;49.288;8.130;2022-09-09T11:26:51;23.00;99.90
18950;DHT22;9608;49.288;8.130;2022-09-09T11:30:02;23.70;99.90
18950;DHT22;9608;49.288;8.130;2022-09-09T11:33:02;24.20;99.90
18950;DHT22;9608;49.288;8.130;2022-09-09T11:35:40;24.30;99.90
18950;DHT22;9608;49.288;8.130;2022-09-09T11:38:18;24.40;99.90
18950;DHT22;9608;49.288;8.130;2022-09-09T11:40:46;24.40;99.90
18950;DHT22;9608;49.288;8.130;2022-09-09T11:43:15;24.60;99.90
18950;DHT22;9608;49.288;8.130;2022-09-09T11:45:51;24.90;99.90
18950;DHT22;9608;49.288;8.130;2022-09-09T11:48:28;25.50;99.90
18950;DHT22;9608;49.288;8.130;2022-09-09T11:51:01;25.60;99.90
18950;DHT22;9608;49.288;8.130;2022-09-09T11:53:28;25.40;99.90
18950;DHT22;9608;49.288;8.130;2022-09-09T11:56:11;25.70;99.90
18950;DHT22;9608;49.288;8.130;2022-09-09T11:58:42;25.20;99.90
18950;DHT22;9608;49.288;8.130;2022-09-09T12:01:16;25.30;99.90
18950;DHT22;9608;49.288;8.130;2022-09-09T12:04:01;25.10;99.90
18950;DHT22;9608;49.288;8.130;2022-09-09T12:06:33;24.40;99.90
18950;DHT22;9608;49.288;8.130;2022-09-09T12:09:13;23.90;99.90
18950;DHT22;9608;49.288;8.130;2022-09-09T12:11:44;24.00;99.90
18950;DHT22;9608;49.288;8.130;2022-09-09T12:14:20;23.70;99.90
18950;DHT22;9608;49.288;8.130;2022-09-09T12:16:48;23.70;99.90
18950;DHT22;9608;49.288;8.130;2022-09-09T12:19:19;23.90;99.90
18950;DHT22;9608;49.288;8.130;2022-09-09T12:21:54;24.00;99.90
18950;DHT22;9608;49.288;8.130;2022-09-09T12:24:29;24.10;99.90
18950;DHT22;9608;49.288;8.130;2022-09-09T12:27:04;24.30;99.90
18950;DHT22;9608;49.288;8.130;2022-09-09T12:29:43;24.40;99.90
18950;DHT22;9608;49.288;8.130;2022-09-09T12:32:16;24.50;99.90
18950;DHT22;9608;49.288;8.130;2022-09-09T12:34:48;24.20;99.90
18950;DHT22;9608;49.288;8.130;2022-09-09T12:37:24;23.80;99.90
18950;DHT22;9608;49.288;8.130;2022-09-09T12:39:55;23.80;99.90
18950;DHT22;9608;49.288;8.130;2022-09-09T12:42:24;23.80;99.90
18950;DHT22;9608;49.288;8.130;2022-09-09T12:44:55;23.60;99.90
18950;DHT22;9608;49.288;8.130;2022-09-09T12:47:26;23.00;99.90
18950;DHT22;9608;49.288;8.130;2022-09-09T12:49:55;23.00;99.90
18950;DHT22;9608;49.288;8.130;2022-09-09T12:52:27;22.70;99.90
18950;DHT22;9608;49.288;8.130;2022-09-09T12:54:56;22.50;99.90
18950;DHT22;9608;49.288;8.130;2022-09-09T12:57:24;22.40;99.90
18950;DHT22;9608;49.288;8.130;2022-09-09T12:59:51;22.60;99.90
18950;DHT22;9608;49.288;8.130;2022-09-09T13:02:21;23.00;99.90
18950;DHT22;9608;49.288;8.130;2022-09-09T13:04:49;23.20;99.90
18950;DHT22;9608;49.288;8.130;2022-09-09T13:07:20;23.50;99.90
18950;DHT22;9608;49.288;8.130;2022-09-09T13:09:48;23.80;99.90
18950;DHT22;9608;49.288;8.130;2022-09-09T13:12:18;24.00;99.90
18950;DHT22;9608;49.288;8.130;2022-09-09T13:14:48;24.10;99.90
18950;DHT22;9608;49.288;8.130;2022-09-09T13:17:19;24.20;99.90
18950;DHT22;9608;49.288;8.130;2022-09-09T13:19:48;24.20;99.90
18950;DHT22;9608;49.288;8.130;2022-09-09T13:22:23;24.00;99.90
18950;DHT22;9608;49.288;8.130;2022-09-09T13:25:01;23.90;99.90
18950;DHT22;9608;49.288;8.130;2022-09-09T13:27:31;23.80;99.90
18950;DHT22;9608;49.288;8.130;2022-09-09T13:29:59;23.80;99.90
18950;DHT22;9608;49.288;8.130;2022-09-09T13:32:28;23.60;99.90
18950;DHT22;9608;49.288;8.130;2022-09-09T13:34:58;23.40;99.90
18950;DHT22;9608;49.288;8.130;2022-09-09T13:37:32;23.20;99.90
18950;DHT22;9608;49.288;8.130;2022-09-09T13:40:00;23.30;99.90
18950;DHT22;9608;49.288;8.130;2022-09-09T13:42:29;23.40;99.90
18950;DHT22;9608;49.288;8.130;2022-09-09T13:44:58;23.50;99.90
18950;DHT22;9608;49.288;8.130;2022-09-09T13:47:32;23.20;99.90
18950;DHT22;9608;49.288;8.130;2022-09-09T13:50:15;22.70;99.90
18950;DHT22;9608;49.288;8.130;2022-09-09T13:52:45;22.50;99.90
18950;DHT22;9608;49.288;8.130;2022-09-09T13:55:13;22.70;99.90
18950;DHT22;9608;49.288;8.130;2022-09-09T13:57:50;22.90;99.90
18950;DHT22;9608;49.288;8.130;2022-09-09T14:00:17;22.90;99.90
18950;DHT22;9608;49.288;8.130;2022-09-09T14:02:43;22.90;99.90
18950;DHT22;9608;49.288;8.130;2022-09-09T14:05:11;23.20;99.90
18950;DHT22;9608;49.288;8.130;2022-09-09T14:07:38;22.80;99.90
18950;DHT22;9608;49.288;8.130;2022-09-09T14:10:08;22.40;99.90
18950;DHT22;9608;49.288;8.130;2022-09-09T14:12:35;22.20;99.90
18950;DHT22;9608;49.288;8.130;2022-09-09T14:15:02;22.10;99.90
18950;DHT22;9608;49.288;8.130;2022-09-09T14:17:29;21.80;99.90
18950;DHT22;9608;49.288;8.130;2022-09-09T14:19:56;21.40;99.90
18950;DHT22;9608;49.288;8.130;2022-09-09T14:22:24;21.10;99.90
18950;DHT22;9608;49.288;8.130;2022-09-09T14:24:51;21.10;99.90
18950;DHT22;9608;49.288;8.130;2022-09-09T14:27:19;21.00;99.90
18950;DHT22;9608;49.288;8.130;2022-09-09T14:29:45;21.00;99.90
18950;DHT22;9608;49.288;8.130;2022-09-09T14:32:12;21.00;99.90
18950;DHT22;9608;49.288;8.130;2022-09-09T14:34:39;20.90;99.90
18950;DHT22;9608;49.288;8.130;2022-09-09T14:37:06;20.30;99.90
18950;DHT22;9608;49.288;8.130;2022-09-09T14:39:32;19.70;99.90
18950;DHT22;9608;49.288;8.130;2022-09-09T14:41:59;19.00;99.90
18950;DHT22;9608;49.288;8.130;2022-09-09T14:44:27;18.20;99.90
18950;DHT22;9608;49.288;8.130;2022-09-09T14:46:54;17.90;99.90
18950;DHT22;9608;49.288;8.130;2022-09-09T14:49:21;17.60;99.90
18950;DHT22;9608;49.288;8.130;2022-09-09T14:51:48;17.50;99.90
18950;DHT22;9608;49.288;8.130;2022-09-09T14:54:14;17.20;99.90
18950;DHT22;9608;49.288;8.130;2022-09-09T14:56:41;16.90;99.90
18950;DHT22;9608;49.288;8.130;2022-09-09T14:59:08;16.70;99.90
18950;DHT22;9608;49.288;8.130;2022-09-09T15:01:39;16.40;99.90
18950;DHT22;9608;49.288;8.130;2022-09-09T15:04:06;16.20;99.90
18950;DHT22;9608;49.288;8.130;2022-09-09T15:06:34;16.10;99.90
18950;DHT22;9608;49.288;8.130;2022-09-09T15:09:03;16.10;99.90
18950;DHT22;9608;49.288;8.130;2022-09-09T15:11:33;16.30;99.90
18950;DHT22;9608;49.288;8.130;2022-09-09T15:14:03;16.50;99.90
18950;DHT22;9608;49.288;8.130;2022-09-09T15:16:30;16.90;99.90
18950;DHT22;9608;49.288;8.130;2022-09-09T15:19:01;17.20;99.90
18950;DHT22;9608;49.288;8.130;2022-09-09T15:21:29;17.50;99.90
18950;DHT22;9608;49.288;8.130;2022-09-09T15:23:57;18.00;99.90
18950;DHT22;9608;49.288;8.130;2022-09-09T15:26:24;18.30;99.90
18950;DHT22;9608;49.288;8.130;2022-09-09T15:28:52;18.60;99.90
18950;DHT22;9608;49.288;8.130;2022-09-09T15:31:22;18.80;99.90
18950;DHT22;9608;49.288;8.130;2022-09-09T15:33:49;19.00;99.90
18950;DHT22;9608;49.288;8.130;2022-09-09T15:36:20;19.10;99.90
18950;DHT22;9608;49.288;8.130;2022-09-09T15:38:48;19.20;99.90
18950;DHT22;9608;49.288;8.130;2022-09-09T15:41:15;19.40;99.90
18950;DHT22;9608;49.288;8.130;2022-09-09T15:43:44;19.30;99.90
18950;DHT22;9608;49.288;8.130;2022-09-09T15:46:24;19.30;99.90
18950;DHT22;9608;49.288;8.130;2022-09-09T15:48:53;19.10;99.90
18950;DHT22;9608;49.288;8.130;2022-09-09T15:51:22;19.00;99.90
18950;DHT22;9608;49.288;8.130;2022-09-09T15:53:53;18.90;99.90
18950;DHT22;9608;49.288;8.130;2022-09-09T15:56:20;18.80;99.90
18950;DHT22;9608;49.288;8.130;2022-09-09T15:58:47;18.80;99.90
18950;DHT22;9608;49.288;8.130;2022-09-09T16:01:14;18.70;99.90
18950;DHT22;9608;49.288;8.130;2022-09-09T16:03:42;18.50;99.90
18950;DHT22;9608;49.288;8.130;2022-09-09T16:06:12;18.50;99.90
18950;DHT22;9608;49.288;8.130;2022-09-09T16:08:42;18.50;99.90
18950;DHT22;9608;49.288;8.130;2022-09-09T16:11:12;18.50;99.90